createdAt,value
2023-04-10T12:33:02.532Z,18.73
2023-04-10T12:38:01.852Z,19.36
2023-04-10T12:43:01.892Z,19.36
2023-04-10T12:48:01.642Z,19.38
2023-04-10T12:53:01.513Z,19.50
2023-04-10T12:58:01.489Z,19.53
2023-04-10T13:03:01.768Z,19.48
2023-04-10T13:08:01.327Z,19.50
2023-04-10T13:13:01.286Z,19.69
2023-04-10T13:18:02.006Z,19.51
2023-04-10T13:23:04.241Z,19.57
2023-04-10T13:28:01.021Z,19.76
2023-04-10T13:33:01.069Z,19.72
2023-04-10T13:38:01.043Z,19.84
2023-04-10T13:43:01.465Z,19.58
2023-04-10T13:48:00.852Z,19.66
2023-04-10T13:53:00.713Z,19.72
2023-04-10T13:58:00.628Z,19.88
2023-04-10T14:03:00.990Z,19.97
2023-04-10T14:08:00.501Z,20.13
2023-04-10T14:13:00.489Z,20.15
2023-04-10T14:18:00.405Z,20.20
2023-04-10T14:23:03.340Z,20.21
2023-04-10T14:28:00.316Z,20.24
2023-04-10T14:33:02.184Z,21.30
2023-04-10T14:38:00.113Z,21.38
2023-04-10T14:43:00.125Z,21.79
2023-04-10T14:48:00.189Z,22.14
2023-04-10T14:53:00.169Z,22.09
2023-04-10T14:57:59.933Z,22.07
2023-04-10T15:03:00.138Z,21.71
2023-04-10T15:07:59.786Z,21.60
2023-04-10T15:12:59.881Z,21.71
2023-04-10T15:17:59.702Z,21.63
2023-04-10T15:23:02.937Z,21.34
2023-04-10T15:28:00.863Z,20.58
2023-04-10T15:32:59.588Z,20.18
2023-04-10T15:37:59.337Z,20.10
2023-04-10T15:42:59.369Z,20.20
2023-04-10T15:47:59.352Z,20.16
2023-04-10T15:52:59.187Z,20.06
2023-04-10T15:58:00.969Z,19.88
2023-04-10T16:02:59.313Z,19.95
2023-04-10T16:07:58.966Z,19.80
2023-04-10T16:12:58.989Z,19.70
2023-04-10T16:17:58.987Z,19.39
2023-04-10T16:23:01.868Z,18.87
2023-04-10T16:27:58.686Z,18.62
2023-04-10T16:32:58.746Z,18.64
2023-04-10T16:37:58.682Z,18.77
2023-04-10T16:42:58.511Z,18.39
2023-04-10T16:47:58.474Z,18.49
2023-04-10T16:52:58.382Z,18.44
2023-04-10T16:58:06.163Z,18.65
2023-04-10T17:03:05.839Z,18.59
2023-04-10T17:07:58.381Z,18.25
2023-04-10T17:12:58.098Z,18.09
2023-04-10T17:17:58.374Z,18.06
2023-04-10T17:23:00.987Z,18.04
2023-04-10T17:27:57.895Z,17.84
2023-04-10T17:32:57.921Z,17.64
2023-04-10T17:37:57.749Z,17.57
2023-04-10T17:42:57.707Z,17.32
2023-04-10T17:47:57.683Z,17.35
2023-04-10T17:52:57.765Z,17.10
2023-04-10T17:57:57.584Z,16.93
2023-04-10T18:02:57.693Z,16.92
2023-04-10T18:07:57.531Z,16.80
2023-04-10T18:12:57.421Z,16.86
2023-04-10T18:17:57.281Z,16.50
2023-04-10T18:23:00.510Z,16.44
2023-04-10T18:32:58.102Z,16.35
2023-04-10T18:37:57.057Z,16.14
2023-04-10T18:42:57.007Z,16.07
2023-04-10T18:47:56.838Z,16.04
2023-04-10T18:52:56.792Z,15.93
2023-04-10T18:57:56.827Z,16.03
2023-04-10T19:02:56.742Z,15.67
2023-04-10T19:08:03.525Z,15.76
2023-04-10T19:12:57.602Z,15.54
2023-04-10T19:17:56.619Z,15.61
2023-04-10T19:22:59.368Z,15.42
2023-04-10T19:27:56.325Z,15.15
2023-04-10T19:32:56.271Z,15.31
2023-04-10T19:37:56.252Z,15.39
2023-04-10T19:42:57.441Z,15.38
2023-04-10T19:47:56.172Z,15.42
2023-04-10T19:52:56.036Z,15.46
2023-04-10T19:57:55.867Z,15.01
2023-04-10T20:02:56.184Z,15.28
2023-04-10T20:07:55.819Z,15.23
2023-04-10T20:12:55.726Z,15.38
2023-04-10T20:17:55.822Z,15.09
2023-04-10T20:22:58.593Z,14.94
2023-04-10T20:27:55.525Z,14.99
2023-04-10T20:32:55.467Z,14.88
2023-04-10T20:37:55.313Z,14.84
2023-04-10T20:42:55.296Z,15.05
2023-04-10T20:47:55.258Z,15.24
2023-04-10T20:52:55.198Z,14.81
2023-04-10T20:57:55.137Z,14.64
2023-04-10T21:02:55.190Z,14.80
2023-04-10T21:07:54.929Z,14.93
2023-04-10T21:12:55.008Z,14.57
2023-04-10T21:17:54.906Z,14.54
2023-04-10T21:22:57.876Z,14.52
2023-04-10T21:27:54.640Z,14.42
2023-04-10T21:33:02.545Z,14.84
2023-04-10T21:38:02.467Z,14.61
2023-04-10T21:42:56.056Z,14.53
2023-04-10T21:47:54.580Z,14.43
2023-04-10T21:52:54.347Z,14.52
2023-04-10T21:57:54.445Z,14.46
2023-04-10T22:02:54.406Z,14.32
2023-04-10T22:07:54.156Z,14.04
2023-04-10T22:12:54.147Z,14.42
2023-04-10T22:17:54.043Z,14.56
2023-04-10T22:22:57.004Z,14.64
2023-04-10T22:27:53.876Z,14.27
2023-04-10T22:32:53.938Z,14.42
2023-04-10T22:37:53.740Z,14.34
2023-04-10T22:42:54.407Z,14.28
2023-04-10T22:47:53.609Z,14.44
2023-04-10T22:52:53.718Z,14.06
2023-04-10T22:57:53.527Z,14.16
2023-04-10T23:02:53.618Z,14.24
2023-04-10T23:07:53.358Z,14.09
2023-04-10T23:12:53.410Z,14.49
2023-04-10T23:17:53.275Z,14.27
2023-04-10T23:22:56.166Z,14.78
2023-04-10T23:27:53.117Z,14.24
2023-04-10T23:32:53.107Z,14.47
2023-04-10T23:37:52.960Z,14.52
2023-04-10T23:42:52.973Z,14.29
2023-04-10T23:47:52.966Z,14.06
2023-04-10T23:52:54.701Z,14.21
2023-04-10T23:57:52.696Z,14.50
